»·PEaware :: N982CA KSAN-KSNA

N982CA :: KSAN-KSNA

FLIGHT INFORMATION

Flight Status: Arrived
Operator: Privately registered:
United States
More flights under this callsign
Pilot: David C. (25479)
Aircraft: Unknown
(CJ4)
More flights by this aircraft type
Origin: KSAN San Diego Intl-Lindbergh
United States
Destination: KSNA John Wayne-Orange Co
United States
More flights between these airports :: More routes between these airports
Route: CWARD2 SLI
File this flight plan on PilotEdge
Remarks:
Altitude:
(Current/Filed)
10,000ft
Speed:
(Current/Filed)
190kts
Departed: 13-Jan-21 05:46 PM
Arrived: 13-Jan-21 06:24 PM
Distance/Time
Traveled:
66nm/0:38
Distance/Time
To Go:
Arrived

Flight Plot

Page will automatically refresh every two minutes.

Flight plan parsing failed; only flown route is shown


Map Options




Map Legend


Flown Route
Filed Route
Departure Airport
Arrival Airport
Navaid (VOR, NDB)
Fix

Horizontal Profiles

Position Reports

Time Latitude Longitude Heading Altitude Ground
Speed
13-Jan-21 17:28 32.733354 -117.178519 139 17ft 0kts
13-Jan-21 17:29 32.733354 -117.178519 139 17ft 0kts
13-Jan-21 17:30 32.733354 -117.178519 139 17ft 0kts
13-Jan-21 17:31 32.733354 -117.178519 139 17ft 0kts
13-Jan-21 17:32 32.733354 -117.178519 139 17ft 0kts
13-Jan-21 17:33 32.733354 -117.178519 139 17ft 0kts
13-Jan-21 17:34 32.733231 -117.178342 129 17ft 0kts
13-Jan-21 17:36 32.733231 -117.178342 129 17ft 0kts
13-Jan-21 17:37 32.733231 -117.178342 129 17ft 0kts
13-Jan-21 17:38 32.733231 -117.178342 129 17ft 0kts
13-Jan-21 17:39 32.733231 -117.178342 129 17ft 0kts
13-Jan-21 17:40 32.733231 -117.178342 129 17ft 0kts
13-Jan-21 17:41 32.733150 -117.178178 323 17ft 4kts
13-Jan-21 17:42 32.732545 -117.177619 104 16ft 18kts
13-Jan-21 17:43 32.730972 -117.175562 154 15ft 0kts
13-Jan-21 17:44 32.730972 -117.175562 154 15ft 0kts
13-Jan-21 17:45 32.730972 -117.175562 154 15ft 0kts
13-Jan-21 17:46 32.731107 -117.179530 285 13ft 95kts
13-Jan-21 17:47 32.743759 -117.227467 298 2187ft 161kts
13-Jan-21 17:48 32.770170 -117.270527 306 4753ft 163kts
13-Jan-21 17:49 32.797361 -117.314519 304 7238ft 171kts
13-Jan-21 17:50 32.827142 -117.361854 306 9976ft 180kts
13-Jan-21 17:51 32.868116 -117.425066 307 10047ft 281kts
13-Jan-21 17:52 32.913248 -117.495278 309 9997ft 256kts
13-Jan-21 17:53 32.955452 -117.560714 308 9992ft 244kts
13-Jan-21 17:53 32.989642 -117.613772 308 9994ft 239kts
13-Jan-21 17:55 33.038142 -117.689478 309 10005ft 259kts
13-Jan-21 17:55 33.077324 -117.745221 321 10004ft 269kts
13-Jan-21 17:57 33.146025 -117.812661 322 10001ft 277kts
13-Jan-21 17:57 33.194443 -117.860457 334 9989ft 266kts
13-Jan-21 17:58 33.265638 -117.879787 351 9995ft 260kts
13-Jan-21 17:59 33.336276 -117.897570 350 9996ft 258kts
13-Jan-21 18:00 33.406132 -117.916625 343 9997ft 255kts
13-Jan-21 18:01 33.466909 -117.939428 345 8862ft 168kts
13-Jan-21 18:02 33.509682 -117.955100 344 7355ft 174kts
13-Jan-21 18:03 33.556616 -117.972475 344 6140ft 174kts
13-Jan-21 18:04 33.605678 -117.990626 344 6018ft 191kts
13-Jan-21 18:05 33.656721 -118.009404 344 6004ft 192kts
13-Jan-21 18:06 33.701711 -117.999919 21 5974ft 149kts
13-Jan-21 18:07 33.740114 -117.982524 28 5988ft 149kts
13-Jan-21 18:08 33.781149 -117.954272 32 4637ft 181kts
13-Jan-21 18:09 33.820677 -117.925305 32 3258ft 157kts
13-Jan-21 18:10 33.849158 -117.895122 51 2986ft 133kts
13-Jan-21 18:11 33.873888 -117.857584 52 3012ft 149kts
13-Jan-21 18:12 33.876364 -117.809125 93 3007ft 150kts
13-Jan-21 18:13 33.873302 -117.759671 93 2991ft 134kts
13-Jan-21 18:14 33.870717 -117.719992 93 2963ft 110kts
13-Jan-21 18:15 33.866660 -117.679354 67 3026ft 132kts
13-Jan-21 18:16 33.881050 -117.699493 251 3055ft 148kts
13-Jan-21 18:17 33.863234 -117.745828 241 3044ft 158kts
13-Jan-21 18:18 33.827287 -117.772759 205 3041ft 167kts
13-Jan-21 18:19 33.785004 -117.799724 206 2357ft 179kts
13-Jan-21 18:20 33.742267 -117.826827 205 1371ft 152kts
13-Jan-21 18:21 33.708934 -117.847732 208 638ft 128kts
13-Jan-21 18:22 33.677715 -117.867693 208 48ft 111kts
13-Jan-21 18:23 33.672445 -117.872072 306 46ft 0kts
13-Jan-21 18:24 33.670747 -117.873981 224 45ft 12kts
13-Jan-21 18:25 33.674691 -117.871827 30 44ft 12kts
13-Jan-21 18:26 33.676785 -117.870734 33 44ft 0kts
13-Jan-21 18:27 33.676785 -117.870734 33 44ft 0kts
13-Jan-21 18:28 33.676785 -117.870734 33 44ft 0kts
13-Jan-21 18:29 33.676785 -117.870734 33 44ft 0kts
13-Jan-21 18:30 33.676785 -117.870734 33 44ft 0kts
13-Jan-21 18:31 33.676785 -117.870734 33 44ft 0kts
13-Jan-21 18:32 33.676785 -117.870734 33 44ft 0kts
13-Jan-21 18:33 33.676785 -117.870734 33 44ft 0kts
13-Jan-21 18:34 33.676785 -117.870734 33 44ft 0kts
13-Jan-21 18:35 33.676785 -117.870734 33 44ft 0kts
13-Jan-21 18:36 33.676785 -117.870734 33 44ft 0kts
13-Jan-21 18:37 33.676785 -117.870734 33 44ft 0kts

Navigation Log

Ident Type
Flight plan parsing failed, navigation log unavailable